createdAt,value
2023-10-08T00:00:07.137Z,99331.08
2023-10-08T00:02:16.609Z,99327.66
2023-10-08T00:04:21.396Z,99317.48
2023-10-08T00:06:26.764Z,99316.11
2023-10-08T00:08:32.721Z,99311.95
2023-10-08T00:10:40.852Z,99303.59
2023-10-08T00:12:45.476Z,99306.46
2023-10-08T00:14:50.440Z,99310.53
2023-10-08T00:16:55.339Z,99310.73
2023-10-08T00:19:00.213Z,99306.79
2023-10-08T00:21:05.538Z,99295.56
2023-10-08T00:23:10.456Z,99292.91
2023-10-08T00:25:15.584Z,99290.52
2023-10-08T00:27:20.338Z,99287.06
2023-10-08T00:29:25.127Z,99294.47
2023-10-08T00:31:32.496Z,99291.33
2023-10-08T00:33:37.350Z,99277.20
2023-10-08T00:35:43.013Z,99280.98
2023-10-08T00:37:47.804Z,99279.63
2023-10-08T00:39:52.706Z,99276.44
2023-10-08T00:41:57.318Z,99272.59
2023-10-08T00:44:02.242Z,99268.11
2023-10-08T00:46:10.257Z,99264.21
2023-10-08T00:48:15.363Z,99272.18
2023-10-08T00:50:20.918Z,99262.27
2023-10-08T00:52:26.041Z,99261.79
2023-10-08T00:54:30.841Z,99256.48
2023-10-08T00:56:37.269Z,99260.65
2023-10-08T00:58:42.495Z,99266.46
2023-10-08T01:00:47.571Z,99272.41
2023-10-08T01:02:52.486Z,99277.13
2023-10-08T01:04:57.604Z,99279.73
2023-10-08T01:07:03.610Z,99278.43
2023-10-08T01:09:08.408Z,99278.98
2023-10-08T01:11:23.638Z,99273.98
2023-10-08T01:13:31.091Z,99271.39
2023-10-08T01:15:35.851Z,99271.13
2023-10-08T01:17:40.784Z,99274.64
2023-10-08T01:19:45.972Z,99276.21
2023-10-08T01:21:50.839Z,99263.69
2023-10-08T01:23:55.579Z,99266.35
2023-10-08T01:26:00.328Z,99263.31
2023-10-08T01:28:06.033Z,99253.66
2023-10-08T01:30:15.205Z,99247.88
2023-10-08T01:32:20.777Z,99246.85
2023-10-08T01:34:28.548Z,99248.47
2023-10-08T01:36:33.543Z,99247.98
2023-10-08T01:38:39.497Z,99243.27
2023-10-08T01:40:44.996Z,99256.38
2023-10-08T01:42:52.885Z,99251.98
2023-10-08T01:44:57.673Z,99254.81
2023-10-08T01:47:02.449Z,99250.70
2023-10-08T01:49:07.159Z,99251.83
2023-10-08T01:51:12.086Z,99256.86
2023-10-08T01:53:17.522Z,99251.49
2023-10-08T01:55:22.660Z,99252.30
2023-10-08T01:57:27.273Z,99258.20
2023-10-08T01:59:33.790Z,99267.52
2023-10-08T02:01:38.857Z,99272.89
2023-10-08T02:03:43.969Z,99264.38
2023-10-08T02:05:51.841Z,99254.41
2023-10-08T02:07:56.799Z,99256.36
2023-10-08T02:10:05.802Z,99253.60
2023-10-08T02:12:11.995Z,99250.67
2023-10-08T02:14:18.192Z,99249.10
2023-10-08T02:16:22.979Z,99253.81
2023-10-08T02:18:28.654Z,99260.58
2023-10-08T02:20:36.064Z,99255.32
2023-10-08T02:22:40.824Z,99264.85
2023-10-08T02:24:45.762Z,99262.52
2023-10-08T02:26:50.773Z,99268.27
2023-10-08T02:28:55.533Z,99268.91
2023-10-08T02:31:00.364Z,99260.13
2023-10-08T02:33:05.752Z,99262.17
2023-10-08T02:35:11.042Z,99250.21
2023-10-08T02:37:15.728Z,99253.95
2023-10-08T02:39:20.471Z,99257.90
2023-10-08T02:41:25.293Z,99265.42
2023-10-08T02:43:30.235Z,99260.97
2023-10-08T02:45:35.016Z,99258.27
2023-10-08T02:47:40.159Z,99263.63
2023-10-08T02:49:44.856Z,99255.86
2023-10-08T02:51:51.898Z,99256.89
2023-10-08T02:53:56.573Z,99254.40
2023-10-08T02:56:01.434Z,99250.17
2023-10-08T02:58:11.036Z,99254.81
2023-10-08T03:00:18.412Z,99247.73
2023-10-08T03:02:23.309Z,99241.99
2023-10-08T03:04:28.501Z,99250.87
2023-10-08T03:06:36.330Z,99253.47
2023-10-08T03:08:43.738Z,99247.89
2023-10-08T03:10:49.186Z,99252.65
2023-10-08T03:12:54.176Z,99253.15
2023-10-08T03:14:59.092Z,99242.10
2023-10-08T03:17:03.802Z,99244.70
2023-10-08T03:19:08.814Z,99246.16
2023-10-08T03:21:15.993Z,99243.06
2023-10-08T03:23:20.945Z,99244.91
2023-10-08T03:25:25.764Z,99239.98
2023-10-08T03:27:33.453Z,99240.89
2023-10-08T03:29:38.368Z,99244.69
2023-10-08T03:31:43.690Z,99243.23
2023-10-08T03:33:48.402Z,99247.33
2023-10-08T03:35:53.427Z,99245.76
2023-10-08T03:37:58.621Z,99243.22
2023-10-08T03:40:03.879Z,99234.13
2023-10-08T03:42:08.616Z,99238.61
2023-10-08T03:44:13.322Z,99236.67
2023-10-08T03:46:18.142Z,99244.52
2023-10-08T03:48:22.871Z,99236.21
2023-10-08T03:50:30.185Z,99257.33
2023-10-08T03:52:35.018Z,99247.96
2023-10-08T03:54:39.715Z,99241.42
2023-10-08T03:56:45.508Z,99241.20
2023-10-08T03:58:50.244Z,99241.04
2023-10-08T04:00:56.136Z,99253.36
2023-10-08T04:03:01.925Z,99251.46
2023-10-08T04:05:07.463Z,99260.34
2023-10-08T04:07:15.235Z,99263.54
2023-10-08T04:09:23.242Z,99270.77
2023-10-08T04:11:28.122Z,99266.39
2023-10-08T04:13:33.150Z,99266.28
2023-10-08T04:15:38.403Z,99258.88
2023-10-08T04:17:43.204Z,99259.42
2023-10-08T04:19:48.161Z,99251.67
2023-10-08T04:21:55.740Z,99253.02
2023-10-08T04:24:00.864Z,99244.52
2023-10-08T04:26:05.541Z,99236.13
2023-10-08T04:28:10.821Z,99235.16
2023-10-08T04:30:16.372Z,99233.05
2023-10-08T04:32:21.249Z,99231.34
2023-10-08T04:34:25.906Z,99230.20
2023-10-08T04:36:33.127Z,99235.61
2023-10-08T04:38:38.056Z,99238.80
2023-10-08T04:40:46.007Z,99232.52
2023-10-08T04:42:53.523Z,99232.94
2023-10-08T04:44:58.267Z,99225.41
2023-10-08T04:47:03.014Z,99230.17
2023-10-08T04:49:08.066Z,99221.08
2023-10-08T04:51:12.820Z,99218.96
2023-10-08T04:53:20.537Z,99216.92
2023-10-08T04:55:25.201Z,99218.48
2023-10-08T04:57:32.619Z,99222.01
2023-10-08T04:59:37.666Z,99219.56
2023-10-08T05:01:42.704Z,99229.42
2023-10-08T05:03:49.448Z,99235.98
2023-10-08T05:05:54.480Z,99235.65
2023-10-08T05:07:59.203Z,99235.05
2023-10-08T05:10:04.243Z,99233.70
2023-10-08T05:12:08.925Z,99235.97
2023-10-08T05:14:14.255Z,99242.24
2023-10-08T05:16:19.465Z,99242.63
2023-10-08T05:18:24.802Z,99254.85
2023-10-08T05:20:30.421Z,99255.71
2023-10-08T05:22:39.202Z,99257.18
2023-10-08T05:24:47.142Z,99253.10
2023-10-08T05:26:51.813Z,99255.44
2023-10-08T05:28:56.733Z,99256.69
2023-10-08T05:31:09.883Z,99260.70
2023-10-08T05:33:15.027Z,99262.00
2023-10-08T05:35:19.819Z,99267.52
2023-10-08T05:37:24.476Z,99264.95
2023-10-08T05:39:29.370Z,99267.70
2023-10-08T05:41:34.692Z,99268.38
2023-10-08T05:43:40.028Z,99272.55
2023-10-08T05:45:44.737Z,99278.23
2023-10-08T05:47:49.474Z,99289.05
2023-10-08T05:49:54.325Z,99285.27
2023-10-08T05:51:59.190Z,99286.78
2023-10-08T05:54:04.137Z,99285.43
2023-10-08T05:56:09.166Z,99281.70
2023-10-08T05:58:14.023Z,99279.39
2023-10-08T06:00:19.544Z,99276.67
2023-10-08T06:02:26.397Z,99281.33
2023-10-08T06:04:31.336Z,99273.68
2023-10-08T06:06:38.815Z,99273.02
2023-10-08T06:08:46.678Z,99277.96
2023-10-08T06:10:51.516Z,99281.70
2023-10-08T06:13:00.592Z,99291.17
2023-10-08T06:15:06.271Z,99293.08
2023-10-08T06:17:10.939Z,99297.63
2023-10-08T06:19:16.206Z,99311.11
2023-10-08T06:21:21.035Z,99296.02
2023-10-08T06:23:32.192Z,99308.16
2023-10-08T06:25:36.921Z,99313.20
2023-10-08T06:27:41.673Z,99322.14
2023-10-08T06:29:46.534Z,99324.80
2023-10-08T06:31:51.238Z,99329.35
2023-10-08T06:33:56.123Z,99327.95
2023-10-08T06:36:01.307Z,99328.02
2023-10-08T06:38:06.292Z,99322.06
2023-10-08T06:40:12.642Z,99332.09
2023-10-08T06:42:17.526Z,99322.80
2023-10-08T06:44:22.276Z,99321.02
2023-10-08T06:46:27.038Z,99315.39
2023-10-08T06:48:31.932Z,99323.46
2023-10-08T06:50:36.978Z,99345.95
2023-10-08T06:52:41.779Z,99354.19
2023-10-08T06:54:46.556Z,99351.17
2023-10-08T06:56:51.281Z,99358.11
2023-10-08T06:58:56.040Z,99353.64
2023-10-08T07:01:01.409Z,99351.52
2023-10-08T07:03:09.323Z,99363.30
2023-10-08T07:05:14.378Z,99364.23
2023-10-08T07:07:19.341Z,99369.92
2023-10-08T07:09:24.286Z,99372.15
2023-10-08T07:11:29.483Z,99365.27
2023-10-08T07:13:34.276Z,99355.85
2023-10-08T07:15:39.387Z,99359.54
2023-10-08T07:17:47.191Z,99362.35
2023-10-08T07:19:52.209Z,99356.17
2023-10-08T07:21:57.268Z,99355.59
2023-10-08T07:24:02.101Z,99360.85
2023-10-08T07:26:06.775Z,99355.76
2023-10-08T07:28:11.512Z,99360.73
2023-10-08T07:30:19.418Z,99346.97
2023-10-08T07:32:25.727Z,99351.37
2023-10-08T07:34:34.298Z,99351.55
2023-10-08T07:36:39.125Z,99348.23
2023-10-08T07:38:44.260Z,99347.14
2023-10-08T07:40:49.080Z,99344.56
2023-10-08T07:42:56.601Z,99346.63
2023-10-08T07:45:01.379Z,99359.14
2023-10-08T07:47:06.746Z,99364.95
2023-10-08T07:49:11.456Z,99365.39
2023-10-08T07:51:17.272Z,99369.35
2023-10-08T07:53:22.268Z,99379.10
2023-10-08T07:55:27.081Z,99386.54
2023-10-08T07:57:32.162Z,99397.11
2023-10-08T07:59:37.178Z,99404.55
2023-10-08T08:01:45.023Z,99412.25
2023-10-08T08:03:50.098Z,99431.56
2023-10-08T08:05:55.307Z,99412.91
2023-10-08T08:08:00.191Z,99420.82
2023-10-08T08:10:05.302Z,99412.15
2023-10-08T08:12:10.212Z,99416.48
2023-10-08T08:14:15.276Z,99431.56
2023-10-08T08:16:20.125Z,99443.16
2023-10-08T08:18:24.988Z,99443.16
2023-10-08T08:20:29.691Z,99438.48
2023-10-08T08:22:34.514Z,99446.09
2023-10-08T08:24:39.461Z,99443.09
2023-10-08T08:26:44.125Z,99452.73
2023-10-08T08:28:48.902Z,99451.92
2023-10-08T08:30:54.199Z,99451.42
2023-10-08T08:32:59.178Z,99436.40
2023-10-08T08:35:03.978Z,99437.60
2023-10-08T08:37:08.991Z,99438.95
2023-10-08T08:39:16.776Z,99453.65
2023-10-08T08:41:21.883Z,99442.90
2023-10-08T08:43:26.995Z,99451.91
2023-10-08T08:45:32.356Z,99459.70
2023-10-08T08:47:38.544Z,99469.84
2023-10-08T08:49:45.210Z,99462.44
2023-10-08T08:51:53.458Z,99467.97
2023-10-08T08:53:58.314Z,99473.33
2023-10-08T08:56:06.353Z,99478.30
2023-10-08T08:58:11.073Z,99486.80
2023-10-08T09:00:18.291Z,99482.07
2023-10-08T09:02:23.439Z,99485.74
2023-10-08T09:04:32.265Z,99492.36
2023-10-08T09:06:38.111Z,99505.41
2023-10-08T09:08:43.038Z,99522.30
2023-10-08T09:10:47.880Z,99530.92
2023-10-08T09:12:52.828Z,99553.13
2023-10-08T09:15:03.160Z,99575.70
2023-10-08T09:17:08.149Z,99585.76
2023-10-08T09:19:13.182Z,99593.71
2023-10-08T09:21:21.879Z,99597.62
2023-10-08T09:23:26.867Z,99617.62
2023-10-08T09:25:31.842Z,99620.37
2023-10-08T09:27:36.799Z,99624.08
2023-10-08T09:29:41.878Z,99628.98
2023-10-08T09:31:54.883Z,99630.49
2023-10-08T09:33:59.670Z,99632.48
2023-10-08T09:36:09.226Z,99644.02
2023-10-08T09:38:14.228Z,99652.58
2023-10-08T09:40:20.815Z,99650.08
2023-10-08T09:42:27.296Z,99646.75
2023-10-08T09:44:32.831Z,99651.75
2023-10-08T09:46:42.466Z,99653.91
2023-10-08T09:48:52.548Z,99672.20
2023-10-08T09:50:59.483Z,99674.36
2023-10-08T09:53:11.590Z,99682.83
2023-10-08T09:55:18.773Z,99693.51
2023-10-08T09:57:24.514Z,99693.89
2023-10-08T09:59:30.187Z,99695.97
2023-10-08T10:01:35.443Z,99717.70
2023-10-08T10:03:40.515Z,99728.24
2023-10-08T10:05:46.608Z,99723.21
2023-10-08T10:07:55.889Z,99734.10
2023-10-08T10:10:00.746Z,99738.71
2023-10-08T10:12:07.851Z,99747.88
2023-10-08T10:14:13.007Z,99757.02
2023-10-08T10:16:22.399Z,99748.41
2023-10-08T10:18:31.482Z,99756.09
2023-10-08T10:20:39.402Z,99764.63
2023-10-08T10:22:44.948Z,99777.23
2023-10-08T10:24:50.819Z,99778.52
2023-10-08T10:27:12.430Z,99778.66
2023-10-08T10:29:24.058Z,99794.06
2023-10-08T10:31:32.962Z,99797.96
2023-10-08T10:33:37.905Z,99788.95
2023-10-08T10:35:42.815Z,99792.88
2023-10-08T10:37:48.345Z,99799.54
2023-10-08T10:39:59.322Z,99810.17
2023-10-08T10:42:05.097Z,99808.98
2023-10-08T10:44:10.042Z,99817.77
2023-10-08T10:46:14.997Z,99822.54
2023-10-08T10:48:20.187Z,99840.85
2023-10-08T10:50:25.149Z,99840.33
2023-10-08T10:52:33.241Z,99848.50
2023-10-08T10:54:38.927Z,99846.23
2023-10-08T10:56:45.350Z,99847.80
2023-10-08T10:58:51.017Z,99847.20
2023-10-08T11:00:56.026Z,99843.55
2023-10-08T11:03:02.603Z,99841.48
2023-10-08T11:05:08.800Z,99843.29
2023-10-08T11:07:14.052Z,99855.92
2023-10-08T11:09:18.993Z,99873.56
2023-10-08T11:11:29.038Z,99884.46
2023-10-08T11:13:35.573Z,99890.29
2023-10-08T11:15:40.660Z,99896.49
2023-10-08T11:17:47.328Z,99898.80
2023-10-08T11:19:52.216Z,99899.48
2023-10-08T11:21:57.168Z,99902.02
2023-10-08T11:24:02.022Z,99910.73
2023-10-08T11:26:07.465Z,99904.29
2023-10-08T11:28:12.362Z,99898.74
2023-10-08T11:30:17.273Z,99888.05
2023-10-08T11:32:22.100Z,99880.61
2023-10-08T11:34:34.238Z,99873.96
2023-10-08T11:36:40.483Z,99888.00
2023-10-08T11:38:45.744Z,99899.09
2023-10-08T11:40:50.809Z,99899.48
2023-10-08T11:42:56.043Z,99897.55
2023-10-08T11:45:01.316Z,99898.67
2023-10-08T11:47:06.391Z,99901.45
2023-10-08T11:49:11.225Z,99904.13
2023-10-08T11:51:16.464Z,99902.46
2023-10-08T11:53:21.313Z,99905.85
2023-10-08T11:55:26.016Z,99913.94
2023-10-08T11:57:30.836Z,99923.14
2023-10-08T11:59:35.575Z,99922.07
2023-10-08T12:01:40.913Z,99925.38
2023-10-08T12:03:46.658Z,99927.73
2023-10-08T12:05:51.925Z,99933.34
2023-10-08T12:07:57.150Z,99939.02
2023-10-08T12:10:01.855Z,99935.02
2023-10-08T12:12:07.252Z,99937.13
2023-10-08T12:14:13.215Z,99941.33
2023-10-08T12:16:19.200Z,99945.89
2023-10-08T12:18:25.766Z,99958.88
2023-10-08T12:20:31.483Z,99956.83
2023-10-08T12:22:36.389Z,99957.42
2023-10-08T12:24:41.649Z,99961.09
2023-10-08T12:26:46.477Z,99966.90
2023-10-08T12:28:52.671Z,99962.48
2023-10-08T12:30:58.070Z,99969.13
2023-10-08T12:33:03.648Z,99972.20
2023-10-08T12:35:10.959Z,99977.81
2023-10-08T12:37:16.261Z,99980.02
2023-10-08T12:39:21.640Z,99979.96
2023-10-08T12:41:26.829Z,99967.81
2023-10-08T12:43:31.625Z,99976.84
2023-10-08T12:45:36.839Z,99981.89
2023-10-08T12:47:41.913Z,99973.16
2023-10-08T12:49:49.833Z,99980.42
2023-10-08T12:51:55.262Z,99979.48
2023-10-08T12:54:03.185Z,99986.13
2023-10-08T12:56:09.711Z,99989.14
2023-10-08T12:58:14.620Z,99987.61
2023-10-08T13:00:20.730Z,99982.46
2023-10-08T13:02:26.051Z,99980.77
2023-10-08T13:04:32.140Z,99988.84
2023-10-08T13:06:38.191Z,99981.54
2023-10-08T13:08:43.990Z,99984.01
2023-10-08T13:10:49.703Z,99985.58
2023-10-08T13:12:59.363Z,99987.15
2023-10-08T13:15:04.521Z,99984.36
2023-10-08T13:17:10.214Z,99986.02
2023-10-08T13:19:16.576Z,99980.92
2023-10-08T13:21:23.821Z,99975.92
2023-10-08T13:23:30.705Z,99978.73
2023-10-08T13:25:37.857Z,99984.17
2023-10-08T13:27:43.201Z,99986.41
2023-10-08T13:29:49.728Z,99992.40
2023-10-08T13:31:57.071Z,99990.45
2023-10-08T13:34:02.200Z,99990.84
2023-10-08T13:36:18.105Z,99997.48
2023-10-08T13:38:26.001Z,100006.63
2023-10-08T13:40:32.127Z,100013.92
2023-10-08T13:42:38.771Z,100010.69
2023-10-08T13:44:45.426Z,100015.27
2023-10-08T13:46:51.911Z,100017.27
2023-10-08T13:48:58.601Z,100015.94
2023-10-08T13:51:07.853Z,100015.17
2023-10-08T13:53:14.842Z,100019.42
2023-10-08T13:55:21.089Z,100017.08
2023-10-08T13:57:29.911Z,100020.94
2023-10-08T13:59:36.606Z,100020.78
2023-10-08T14:01:44.746Z,100017.04
2023-10-08T14:03:52.570Z,100024.94
2023-10-08T14:05:58.668Z,100021.70
2023-10-08T14:08:03.682Z,100026.93
2023-10-08T14:10:10.897Z,100023.50
2023-10-08T14:12:16.529Z,100029.34
2023-10-08T14:14:23.383Z,100023.36
2023-10-08T14:16:29.680Z,100028.09
2023-10-08T14:18:35.744Z,100030.70
2023-10-08T14:20:45.758Z,100037.92
2023-10-08T14:22:52.668Z,100042.91
2023-10-08T14:24:59.422Z,100043.10
2023-10-08T14:27:04.869Z,100044.39
2023-10-08T14:29:11.612Z,100047.46
2023-10-08T14:31:17.969Z,100047.62
2023-10-08T14:33:25.767Z,100055.58
2023-10-08T14:35:31.545Z,100058.93
2023-10-08T14:37:38.488Z,100054.63
2023-10-08T14:39:44.493Z,100054.14
2023-10-08T14:41:53.150Z,100063.05
2023-10-08T14:43:59.957Z,100063.36
2023-10-08T14:46:06.375Z,100069.81
2023-10-08T14:48:13.419Z,100064.16
2023-10-08T14:50:19.206Z,100065.98
2023-10-08T14:52:24.786Z,100068.79
2023-10-08T14:54:31.365Z,100064.81
2023-10-08T14:56:38.431Z,100071.38
2023-10-08T14:58:44.796Z,100064.56
2023-10-08T15:00:51.168Z,100056.83
2023-10-08T15:02:58.962Z,100049.59
2023-10-08T15:05:05.507Z,100043.39
2023-10-08T15:07:12.501Z,100055.18
2023-10-08T15:09:19.124Z,100062.13
2023-10-08T15:11:25.707Z,100065.60
2023-10-08T15:13:32.730Z,100066.55
2023-10-08T15:15:40.155Z,100068.20
2023-10-08T15:17:48.377Z,100066.49
2023-10-08T15:19:54.735Z,100065.56
2023-10-08T15:22:01.365Z,100069.00
2023-10-08T15:24:11.433Z,100068.40
2023-10-08T15:26:18.348Z,100065.90
2023-10-08T15:28:26.938Z,100063.67
2023-10-08T15:30:33.211Z,100059.93
2023-10-08T15:32:41.162Z,100061.84
2023-10-08T15:34:49.751Z,100066.19
2023-10-08T15:36:56.798Z,100064.67
2023-10-08T15:39:03.164Z,100066.35
2023-10-08T15:41:09.679Z,100070.26
2023-10-08T15:43:17.044Z,100075.78
2023-10-08T15:45:25.297Z,100084.89
2023-10-08T15:47:33.539Z,100081.45
2023-10-08T15:49:40.137Z,100082.37
2023-10-08T15:51:46.554Z,100079.67
2023-10-08T15:53:52.611Z,100087.69
2023-10-08T15:55:59.170Z,100087.10
2023-10-08T15:58:05.348Z,100086.73
2023-10-08T16:00:15.068Z,100087.02
2023-10-08T16:02:21.797Z,100082.90
2023-10-08T16:04:29.742Z,100089.20
2023-10-08T16:06:36.968Z,100090.04
2023-10-08T16:08:42.824Z,100090.85
2023-10-08T16:10:49.457Z,100094.27
2023-10-08T16:12:55.634Z,100107.46
2023-10-08T16:15:00.971Z,100105.27
2023-10-08T16:17:07.971Z,100108.07
2023-10-08T16:19:15.542Z,100107.20
2023-10-08T16:21:21.614Z,100117.46
2023-10-08T16:23:29.272Z,100112.83
2023-10-08T16:25:36.976Z,100106.65
2023-10-08T16:27:45.341Z,100111.30
2023-10-08T16:29:53.049Z,100123.02
2023-10-08T16:32:04.544Z,100143.84
2023-10-08T16:34:12.198Z,100143.91
2023-10-08T16:36:18.923Z,100131.52
2023-10-08T16:38:25.565Z,100138.35
2023-10-08T16:40:33.899Z,100149.17
2023-10-08T16:42:40.030Z,100148.66
2023-10-08T16:44:46.518Z,100157.14
2023-10-08T16:46:53.003Z,100156.45
2023-10-08T16:48:59.378Z,100159.59
2023-10-08T16:51:07.176Z,100165.75
2023-10-08T16:53:14.786Z,100168.86
2023-10-08T16:55:21.292Z,100162.89
2023-10-08T16:57:28.103Z,100154.20
2023-10-08T16:59:38.080Z,100152.05
2023-10-08T17:01:46.525Z,100149.50
2023-10-08T17:03:51.972Z,100143.90
2023-10-08T17:06:01.254Z,100156.19
2023-10-08T17:08:08.178Z,100157.17
2023-10-08T17:10:15.024Z,100150.89
2023-10-08T17:12:22.249Z,100151.92
2023-10-08T17:14:28.600Z,100154.80
2023-10-08T17:16:35.680Z,100156.92
2023-10-08T17:18:43.475Z,100155.02
2023-10-08T17:20:49.957Z,100153.70
2023-10-08T17:22:59.177Z,100158.00
2023-10-08T17:25:06.718Z,100155.27
2023-10-08T17:27:15.031Z,100155.21
2023-10-08T17:29:26.048Z,100169.58
2023-10-08T17:31:33.543Z,100181.11
2023-10-08T17:33:41.384Z,100178.50
2023-10-08T17:35:48.942Z,100177.76
2023-10-08T17:37:56.333Z,100182.20
2023-10-08T17:40:11.887Z,100188.20
2023-10-08T17:42:19.198Z,100194.01
2023-10-08T17:44:28.933Z,100194.59
2023-10-08T17:46:36.178Z,100197.86
2023-10-08T17:48:43.184Z,100198.42
2023-10-08T17:50:51.510Z,100200.52
2023-10-08T17:52:58.076Z,100200.92
2023-10-08T17:55:08.237Z,100201.07
2023-10-08T17:57:14.954Z,100199.20
2023-10-08T17:59:21.881Z,100194.18
2023-10-08T18:01:28.217Z,100185.63
2023-10-08T18:03:35.237Z,100187.14
2023-10-08T18:05:43.598Z,100184.59
2023-10-08T18:07:51.662Z,100195.36
2023-10-08T18:10:01.537Z,100200.91
2023-10-08T18:12:15.566Z,100207.77
2023-10-08T18:14:23.327Z,100216.48
2023-10-08T18:16:31.123Z,100213.69
2023-10-08T18:18:38.890Z,100213.36
2023-10-08T18:20:45.687Z,100210.98
2023-10-08T18:22:53.698Z,100204.70
2023-10-08T18:24:59.580Z,100194.45
2023-10-08T18:27:08.215Z,100187.13
2023-10-08T18:29:16.593Z,100193.83
2023-10-08T18:31:25.679Z,100192.38
2023-10-08T18:33:35.862Z,100196.58
2023-10-08T18:35:42.947Z,100202.91
2023-10-08T18:37:51.090Z,100207.20
2023-10-08T18:40:02.683Z,100224.23
2023-10-08T18:42:12.889Z,100227.72
2023-10-08T18:44:20.452Z,100228.64
2023-10-08T18:46:31.182Z,100225.98
2023-10-08T18:48:42.243Z,100228.70
2023-10-08T18:50:49.860Z,100229.47
2023-10-08T18:52:59.086Z,100233.33
2023-10-08T18:55:13.412Z,100238.70
2023-10-08T18:57:21.989Z,100237.30
2023-10-08T18:59:29.704Z,100232.77
2023-10-08T19:01:39.273Z,100240.88
2023-10-08T19:03:50.296Z,100250.14
2023-10-08T19:05:58.099Z,100258.68
2023-10-08T19:08:06.084Z,100252.38
2023-10-08T19:10:17.032Z,100247.38
2023-10-08T19:12:23.448Z,100260.63
2023-10-08T19:14:30.755Z,100258.04
2023-10-08T19:16:39.200Z,100259.27
2023-10-08T19:18:50.901Z,100263.84
2023-10-08T19:23:20.152Z,100264.52
2023-10-08T19:25:31.121Z,100267.86
2023-10-08T19:27:44.604Z,100276.30
2023-10-08T19:29:54.176Z,100275.02
2023-10-08T19:32:02.426Z,100272.94
2023-10-08T19:36:41.396Z,100275.48
2023-10-08T19:38:51.630Z,100273.48
2023-10-08T19:41:13.916Z,100275.23
2023-10-08T19:43:23.110Z,100274.73
2023-10-08T19:45:39.694Z,100275.02
2023-10-08T19:47:51.963Z,100267.39
2023-10-08T19:49:59.626Z,100271.09
2023-10-08T19:52:05.849Z,100277.97
2023-10-08T19:54:16.527Z,100278.98
2023-10-08T19:56:23.856Z,100280.78
2023-10-08T19:58:30.689Z,100280.74
2023-10-08T20:00:37.329Z,100282.33
2023-10-08T20:02:45.881Z,100286.57
2023-10-08T20:04:55.921Z,100291.21
2023-10-08T20:07:05.391Z,100291.11
2023-10-08T20:09:12.680Z,100293.02
2023-10-08T20:11:22.385Z,100288.83
2023-10-08T20:13:31.146Z,100288.05
2023-10-08T20:15:38.117Z,100288.52
2023-10-08T20:17:47.076Z,100284.74
2023-10-08T20:19:53.679Z,100284.06
2023-10-08T20:21:59.886Z,100285.92
2023-10-08T20:24:08.215Z,100290.20
2023-10-08T20:26:20.789Z,100286.52
2023-10-08T20:28:34.582Z,100284.10
2023-10-08T20:30:44.985Z,100284.59
2023-10-08T20:32:53.675Z,100278.65
2023-10-08T20:34:59.797Z,100283.92
2023-10-08T20:37:07.999Z,100283.42
2023-10-08T20:39:13.354Z,100279.91
2023-10-08T20:41:24.284Z,100283.67
2023-10-08T20:43:30.382Z,100285.19
2023-10-08T20:45:37.457Z,100283.55
2023-10-08T20:47:45.848Z,100285.08
2023-10-08T20:49:51.422Z,100281.60
2023-10-08T20:51:56.198Z,100279.79
2023-10-08T20:54:01.706Z,100283.89
2023-10-08T20:56:11.792Z,100280.65
2023-10-08T20:58:19.499Z,100280.15
2023-10-08T21:00:25.820Z,100277.20
2023-10-08T21:02:33.105Z,100275.40
2023-10-08T21:04:38.292Z,100277.02
2023-10-08T21:06:43.268Z,100280.10
2023-10-08T21:08:48.183Z,100282.89
2023-10-08T21:13:04.358Z,100280.23
2023-10-08T21:15:11.729Z,100275.59
2023-10-08T21:17:16.444Z,100271.82
2023-10-08T21:19:23.242Z,100273.52
2023-10-08T21:21:29.366Z,100274.83
2023-10-08T21:23:34.637Z,100271.35
2023-10-08T21:25:40.988Z,100274.80
2023-10-08T21:27:51.803Z,100281.11
2023-10-08T21:29:56.770Z,100282.12
2023-10-08T21:32:01.496Z,100276.64
2023-10-08T21:34:06.477Z,100278.20
2023-10-08T21:36:14.470Z,100279.52
2023-10-08T21:38:23.969Z,100272.83
2023-10-08T21:40:29.267Z,100275.56
2023-10-08T21:42:34.113Z,100275.61
2023-10-08T21:44:41.857Z,100271.95
2023-10-08T21:46:46.936Z,100271.45
2023-10-08T21:48:51.723Z,100277.48
2023-10-08T21:50:58.085Z,100285.79
2023-10-08T21:53:06.239Z,100284.78
2023-10-08T21:55:13.252Z,100281.68
2023-10-08T21:57:18.090Z,100272.85
2023-10-08T21:59:23.094Z,100269.80
2023-10-08T22:01:28.166Z,100264.48
2023-10-08T22:03:34.185Z,100258.17
2023-10-08T22:05:41.457Z,100253.59
2023-10-08T22:07:52.345Z,100253.77
2023-10-08T22:09:57.410Z,100262.48
2023-10-08T22:12:02.414Z,100258.38
2023-10-08T22:14:07.790Z,100259.89
2023-10-08T22:16:12.453Z,100248.61
2023-10-08T22:18:18.234Z,100247.31
2023-10-08T22:20:23.614Z,100247.11
2023-10-08T22:22:33.778Z,100247.27
2023-10-08T22:24:38.635Z,100234.11
2023-10-08T22:26:43.646Z,100225.60
2023-10-08T22:28:48.497Z,100221.39
2023-10-08T22:30:54.876Z,100217.46
2023-10-08T22:33:00.022Z,100217.65
2023-10-08T22:35:11.820Z,100221.02
2023-10-08T22:37:16.852Z,100213.64
2023-10-08T22:39:21.811Z,100214.43
2023-10-08T22:41:29.909Z,100202.42
2023-10-08T22:43:35.424Z,100199.55
2023-10-08T22:45:40.294Z,100195.89
2023-10-08T22:47:46.146Z,100186.05
2023-10-08T22:49:51.201Z,100180.98
2023-10-08T22:51:56.161Z,100180.28
2023-10-08T22:54:04.578Z,100190.42
2023-10-08T22:56:09.754Z,100189.11
2023-10-08T22:58:14.696Z,100191.46
2023-10-08T23:00:22.938Z,100195.48
2023-10-08T23:02:28.223Z,100203.20
2023-10-08T23:04:33.029Z,100205.02
2023-10-08T23:06:41.122Z,100207.52
2023-10-08T23:08:46.584Z,100209.56
2023-10-08T23:10:53.856Z,100220.46
2023-10-08T23:13:01.469Z,100218.11
2023-10-08T23:15:10.291Z,100224.62
2023-10-08T23:17:15.296Z,100226.78
2023-10-08T23:19:23.243Z,100222.70
2023-10-08T23:21:28.531Z,100222.08
2023-10-08T23:23:38.637Z,100220.84
2023-10-08T23:25:47.286Z,100215.20
2023-10-08T23:27:52.055Z,100215.40
2023-10-08T23:29:57.313Z,100211.48
2023-10-08T23:32:07.822Z,100213.23
2023-10-08T23:34:13.239Z,100213.91
2023-10-08T23:36:28.609Z,100216.69
2023-10-08T23:38:33.463Z,100214.27
2023-10-08T23:40:38.565Z,100213.72
2023-10-08T23:42:43.337Z,100209.70
2023-10-08T23:44:48.307Z,100207.77
2023-10-08T23:46:53.883Z,100200.88
2023-10-08T23:49:02.101Z,100195.91
2023-10-08T23:51:09.822Z,100186.50
2023-10-08T23:53:14.744Z,100174.79
2023-10-08T23:55:20.314Z,100171.35
2023-10-08T23:57:26.318Z,100166.46
2023-10-08T23:59:31.652Z,100153.42
